Unity Spirit — C6BW3 — position and weather

sailwx.info

Track history (hours):
 
Tides and Currents Weather Stations Pressure Air Temp Water Temp Dewpoint Dewpoint Depression Visibility Wind Speed Wind Dir Waves Ship Positions

Unity Spirit

Last reported at 2017-Dec-03 09:58 UTC. Time now 2017-Dec-11 00:07 UTC.
Position S 23°58' W 046°17'.

Length 200 m; draft 9.7 m.

Type: Cargo ship. MMSI: 311000382.

Date/timePositionNaut miles runAvg speedWind from/ knotsBaromVisibWave heightAir tempDewpointWater temp
2017-Dec-03 09:58S 23°58' W 046°17'0 0.0
2017-Dec-03 01:55S 23°58' W 046°17'2 5.5
2017-Dec-03 01:30S 23°60' W 046°19'4 8.6
2017-Dec-03 01:01S 24°03' W 046°22'3 6.3
2017-Dec-03 00:31S 24°06' W 046°23'3 6.0
2017-Dec-03 00:01S 24°07' W 046°20'0 0.7
2017-Dec-02 23:26S 24°06' W 046°19'0 0.0
2017-Dec-02 22:59S 24°06' W 046°19'0 0.0
2017-Dec-02 22:29S 24°06' W 046°19'0 0.0
2017-Dec-02 21:59S 24°06' W 046°19'0 0.0
2017-Dec-02 21:29S 24°06' W 046°19'0 0.0
2017-Dec-02 20:59S 24°06' W 046°19'0 0.0
2017-Dec-02 20:23S 24°06' W 046°19'0 0.0
2017-Dec-02 19:53S 24°06' W 046°19'0 0.0
2017-Dec-02 19:29S 24°06' W 046°19'0 0.0
2017-Dec-02 18:59S 24°06' W 046°19'0 0.0
2017-Dec-02 18:29S 24°06' W 046°19'0 0.0
2017-Dec-02 17:59S 24°06' W 046°19'0 0.0
2017-Dec-02 17:29S 24°06' W 046°19'0 0.0
2017-Dec-02 16:53S 24°06' W 046°19'0 0.0
2017-Dec-02 16:29S 24°06' W 046°19'0 0.0
2017-Dec-02 15:59S 24°06' W 046°19'0 0.0
2017-Dec-02 15:29S 24°06' W 046°19'0 0.0
2017-Dec-02 14:59S 24°06' W 046°19'0 0.0
2017-Dec-02 14:29S 24°06' W 046°19'0 0.0
2017-Dec-02 13:53S 24°06' W 046°19'0 0.0
2017-Dec-02 13:26S 24°06' W 046°19'0 0.0
2017-Dec-02 12:59S 24°06' W 046°19'0 0.0
2017-Dec-02 12:26S 24°06' W 046°19'0 0.0
2017-Dec-02 11:59S 24°06' W 046°19'0 0.0
2017-Dec-02 11:29S 24°06' W 046°19'0 0.0
2017-Dec-02 10:59S 24°06' W 046°19'0 0.0
2017-Dec-02 10:29S 24°06' W 046°19'0 0.0
2017-Dec-02 09:59S 24°06' W 046°19'0 0.0
2017-Dec-02 09:26S 24°06' W 046°19'0 0.0
2017-Dec-02 08:59S 24°06' W 046°19'0 0.0
2017-Dec-02 08:29S 24°06' W 046°19'0 0.0
2017-Dec-02 07:59S 24°06' W 046°19'0 0.0
2017-Dec-02 07:20S 24°06' W 046°19'0 0.0
2017-Dec-02 06:56S 24°06' W 046°19'0 0.1
2017-Dec-02 06:29S 24°06' W 046°19'0 0.0
2017-Dec-02 05:59S 24°06' W 046°19'0 0.0
2017-Dec-02 05:23S 24°06' W 046°19'0 0.0
2017-Dec-02 04:59S 24°06' W 046°19'0 0.0
2017-Dec-02 04:29S 24°06' W 046°19'0 0.0
2017-Dec-02 03:59S 24°06' W 046°19'0 0.0
2017-Dec-02 03:29S 24°06' W 046°19'0 0.0
2017-Dec-02 02:59S 24°06' W 046°19'0 0.0
2017-Dec-02 02:26S 24°06' W 046°19'0 0.0
2017-Dec-02 01:59S 24°06' W 046°19'0 0.0
2017-Dec-02 01:29S 24°06' W 046°19'0 0.0
2017-Dec-02 00:59S 24°06' W 046°19'0 0.0
2017-Dec-02 00:29S 24°06' W 046°19'0 0.0
2017-Dec-01 23:59S 24°06' W 046°19'0 0.0
2017-Dec-01 23:26S 24°06' W 046°19'0 0.0
2017-Dec-01 22:59S 24°06' W 046°19'0 0.0
2017-Dec-01 22:29S 24°06' W 046°19'0 0.0
2017-Dec-01 21:59S 24°06' W 046°19'0 0.0
2017-Dec-01 21:29S 24°06' W 046°19'0 0.0
2017-Dec-01 20:59S 24°06' W 046°19'0 0.0
2017-Dec-01 20:29S 24°06' W 046°19'0 0.0
2017-Dec-01 19:59S 24°06' W 046°19'0 0.0
2017-Dec-01 19:29S 24°06' W 046°19'0 0.0
2017-Dec-01 18:53S 24°06' W 046°19'0 0.0
2017-Dec-01 18:29S 24°06' W 046°19'0 0.0
2017-Dec-01 17:59S 24°06' W 046°19'0 0.0
2017-Dec-01 17:29S 24°06' W 046°19'0 0.0
2017-Dec-01 16:56S 24°06' W 046°19'0 0.0
2017-Dec-01 16:26S 24°06' W 046°19'0 0.0
2017-Dec-01 15:59S 24°06' W 046°19'0 0.0
2017-Dec-01 15:29S 24°06' W 046°19'0 0.0
2017-Dec-01 14:59S 24°06' W 046°19'0 0.0
2017-Dec-01 14:29S 24°06' W 046°19'0 0.0
2017-Dec-01 13:59S 24°06' W 046°19'0 0.0
2017-Dec-01 13:29S 24°06' W 046°19'0 0.0
2017-Dec-01 12:59S 24°06' W 046°19'0 0.0
2017-Dec-01 12:29S 24°06' W 046°19'0 0.0
2017-Dec-01 11:59S 24°06' W 046°19'0 0.0
2017-Dec-01 11:29S 24°06' W 046°19'0 0.0
2017-Dec-01 10:59S 24°06' W 046°19'0 0.0
2017-Dec-01 10:29S 24°06' W 046°19'0 0.0
2017-Dec-01 09:59S 24°06' W 046°19'0 0.0
2017-Dec-01 09:29S 24°06' W 046°19'0 0.0
2017-Dec-01 08:47S 24°06' W 046°19'0 0.1
2017-Dec-01 08:29S 24°06' W 046°19'0 0.0
2017-Dec-01 07:59S 24°06' W 046°19'0 0.0
2017-Dec-01 07:26S 24°06' W 046°19'0 0.0
2017-Dec-01 06:59S 24°06' W 046°19'0 0.0
2017-Dec-01 06:29S 24°06' W 046°19'0 0.0
2017-Dec-01 05:59S 24°06' W 046°19'0 0.0
2017-Dec-01 05:29S 24°06' W 046°19'0 0.0
2017-Dec-01 04:59S 24°06' W 046°19'0 0.0
2017-Dec-01 04:29S 24°06' W 046°19'0 0.0
2017-Dec-01 03:59S 24°06' W 046°19'0 0.0
2017-Dec-01 03:29S 24°06' W 046°19'0 0.0
2017-Dec-01 02:53S 24°06' W 046°19'0 0.0
2017-Dec-01 02:29S 24°06' W 046°19'0 0.0
2017-Dec-01 01:59S 24°06' W 046°19'0 0.0
2017-Dec-01 01:29S 24°06' W 046°19'0 0.0
2017-Dec-01 00:56S 24°06' W 046°19'0 0.0
2017-Dec-01 00:29S 24°06' W 046°19'0 0.0
2017-Nov-30 23:59S 24°06' W 046°19'0 0.0
2017-Nov-30 23:23S 24°06' W 046°19'0 0.0
2017-Nov-30 22:59S 24°06' W 046°19'0 0.0
2017-Nov-30 22:29S 24°06' W 046°19'0 0.0
2017-Nov-30 21:56S 24°06' W 046°19'0 0.0
2017-Nov-30 21:29S 24°06' W 046°19'0 0.0
2017-Nov-30 20:53S 24°06' W 046°19'0 0.0
2017-Nov-30 20:29S 24°06' W 046°19'0 0.0
2017-Nov-30 19:56S 24°06' W 046°19'0 0.0
2017-Nov-30 19:29S 24°06' W 046°19'0 0.0
2017-Nov-30 18:59S 24°06' W 046°19'0 0.1
2017-Nov-30 18:29S 24°06' W 046°19'0 0.0
2017-Nov-30 17:59S 24°06' W 046°19'0 0.0
2017-Nov-30 17:29S 24°06' W 046°19'0 0.0
2017-Nov-30 16:59S 24°06' W 046°19'0 0.0
2017-Nov-30 16:20S 24°06' W 046°19'0 0.1
2017-Nov-30 15:59S 24°06' W 046°19'0 0.0
2017-Nov-30 15:29S 24°06' W 046°19'0 0.0
2017-Nov-30 14:44S 24°06' W 046°19'0 0.2
2017-Nov-30 14:29S 24°06' W 046°19'0 0.1
2017-Nov-30 13:59S 24°06' W 046°19'0 0.0
2017-Nov-30 13:23S 24°06' W 046°19'0 0.0
2017-Nov-30 12:59S 24°06' W 046°19'0 0.0
2017-Nov-30 12:29S 24°06' W 046°19'0 0.0
2017-Nov-30 11:53S 24°06' W 046°19'0 0.1
2017-Nov-30 11:23S 24°06' W 046°19'0 0.0
2017-Nov-30 10:59S 24°06' W 046°19'0 0.0
2017-Nov-30 10:29S 24°06' W 046°19'0 0.0
2017-Nov-30 09:59S 24°06' W 046°19'0 0.0
2017-Nov-30 09:26S 24°06' W 046°19'0 0.1
2017-Nov-30 08:59S 24°06' W 046°19'0 0.0
2017-Nov-30 08:29S 24°06' W 046°19'0 0.0
2017-Nov-30 07:59S 24°06' W 046°19'0 0.0
2017-Nov-30 07:29S 24°06' W 046°19'0 0.1
2017-Nov-30 06:59S 24°06' W 046°19'0 0.0
2017-Nov-30 06:29S 24°06' W 046°19'0 0.0
2017-Nov-30 05:59S 24°06' W 046°19'0 0.1
2017-Nov-30 05:29S 24°06' W 046°19'0 0.0
2017-Nov-30 04:59S 24°06' W 046°19'0 0.0
2017-Nov-30 04:29S 24°06' W 046°19'0 0.0
2017-Nov-30 03:56S 24°06' W 046°19'0 0.0
2017-Nov-30 03:29S 24°06' W 046°19'0 0.0
2017-Nov-30 02:59S 24°06' W 046°19'0 0.0
2017-Nov-30 02:29S 24°06' W 046°19'0 0.0
2017-Nov-30 01:59S 24°06' W 046°19'0 0.0
2017-Nov-30 01:29S 24°06' W 046°19'0 0.0
2017-Nov-30 00:59S 24°06' W 046°19'0 0.0
2017-Nov-30 00:29S 24°06' W 046°19'0 0.0
2017-Nov-29 23:59S 24°06' W 046°19'0 0.0
2017-Nov-29 23:29S 24°06' W 046°19'0 0.0
2017-Nov-29 22:59S 24°06' W 046°19'0 0.1
2017-Nov-29 22:29S 24°06' W 046°19'0 0.1
2017-Nov-29 21:59S 24°06' W 046°19'0 0.0
2017-Nov-29 21:29S 24°06' W 046°19'0 0.0
2017-Nov-29 20:59S 24°06' W 046°19'0 0.0
2017-Nov-29 20:29S 24°06' W 046°19'0 0.0
2017-Nov-29 19:53S 24°06' W 046°19'0 0.0
2017-Nov-29 19:29S 24°06' W 046°19'0 0.0
2017-Nov-29 18:56S 24°06' W 046°19'0 0.0
2017-Nov-29 18:29S 24°06' W 046°19'0 0.0
2017-Nov-29 17:59S 24°06' W 046°19'0 0.0
2017-Nov-29 17:29S 24°06' W 046°19'0 0.0
2017-Nov-29 16:59S 24°06' W 046°19'0 0.0
2017-Nov-29 16:29S 24°06' W 046°19'0 0.0
2017-Nov-29 15:56S 24°06' W 046°19'0 0.0
2017-Nov-29 15:29S 24°06' W 046°19'0 0.0
2017-Nov-29 14:59S 24°06' W 046°19'0 0.0
2017-Nov-29 14:26S 24°06' W 046°19'0 0.1
2017-Nov-29 13:59S 24°06' W 046°19'0 0.1
2017-Nov-29 13:29S 24°06' W 046°19'0 0.0
2017-Nov-29 12:59S 24°06' W 046°19'0 0.0
2017-Nov-29 12:29S 24°06' W 046°19'0 0.0
2017-Nov-29 11:58S 24°06' W 046°19'0 0.0
2017-Nov-29 11:28S 24°06' W 046°19'0 0.0
2017-Nov-29 10:59S 24°06' W 046°19'0 0.0
2017-Nov-29 10:29S 24°06' W 046°19'0 0.0
2017-Nov-29 09:59S 24°06' W 046°19'0 0.0
2017-Nov-29 09:29S 24°06' W 046°19'0 0.0
2017-Nov-29 08:59S 24°06' W 046°19'0 0.1
2017-Nov-29 08:22S 24°06' W 046°19'0 0.2
2017-Nov-29 07:59S 24°06' W 046°19'0 0.1
2017-Nov-29 07:29S 24°06' W 046°19'0 0.0
2017-Nov-29 06:58S 24°06' W 046°19'0 0.0
2017-Nov-29 06:28S 24°06' W 046°19'0 0.1
2017-Nov-29 05:58S 24°06' W 046°19'0 0.1
2017-Nov-29 05:29S 24°06' W 046°19'0 0.1
2017-Nov-29 04:59S 24°06' W 046°19'0 0.0
2017-Nov-29 04:29S 24°06' W 046°19'0 0.0
2017-Nov-29 03:58S 24°06' W 046°19'0 0.1
2017-Nov-29 03:29S 24°06' W 046°19'0 0.0
2017-Nov-29 02:58S 24°06' W 046°19'0 0.0
2017-Nov-29 02:28S 24°06' W 046°19'0 0.0
2017-Nov-29 01:59S 24°06' W 046°19'0 0.0
2017-Nov-29 01:29S 24°06' W 046°19'0 0.0
2017-Nov-29 00:59S 24°06' W 046°19'0 0.0
2017-Nov-29 00:29S 24°06' W 046°19'0 0.0
2017-Nov-28 23:59S 24°06' W 046°19'0 0.1
2017-Nov-28 23:29S 24°06' W 046°19'0 0.0
2017-Nov-28 22:58S 24°06' W 046°19'0 0.0
2017-Nov-28 22:25S 24°06' W 046°19'0 0.0
2017-Nov-28 21:59S 24°06' W 046°19'0 0.1
2017-Nov-28 21:28S 24°06' W 046°19'0 0.0
2017-Nov-28 20:55S 24°06' W 046°19'0 0.0
2017-Nov-28 20:28S 24°06' W 046°19'0 0.0
2017-Nov-28 19:59S 24°06' W 046°19'0 0.0
2017-Nov-28 19:28S 24°06' W 046°19'0 0.0
2017-Nov-28 18:58S 24°06' W 046°19'0 0.0
2017-Nov-28 18:29S 24°06' W 046°19'0 0.0
2017-Nov-28 17:55S 24°06' W 046°19'0 0.0
2017-Nov-28 17:19S 24°06' W 046°19'0 0.1
2017-Nov-28 16:58S 24°06' W 046°19'0 0.0
2017-Nov-28 16:28S 24°06' W 046°19'0 0.0
2017-Nov-28 15:58S 24°06' W 046°19'0 0.0
2017-Nov-28 14:58S 24°06' W 046°19'0 0.0
2017-Nov-28 14:28S 24°06' W 046°19'0 0.0
2017-Nov-28 13:52S 24°06' W 046°19'0 0.0
2017-Nov-28 13:28S 24°06' W 046°19'0 0.0
2017-Nov-28 12:58S 24°06' W 046°19'0 0.0
2017-Nov-28 12:25S 24°06' W 046°19'0 0.0
2017-Nov-28 11:58S 24°06' W 046°19'0 0.0
2017-Nov-28 11:28S 24°06' W 046°19'0 0.0
2017-Nov-28 10:58S 24°06' W 046°19'0 0.0
2017-Nov-28 10:28S 24°06' W 046°19'0 0.0
2017-Nov-28 09:58S 24°06' W 046°19'0 0.0
2017-Nov-28 09:28S 24°06' W 046°19'0 0.0
2017-Nov-28 08:58S 24°06' W 046°19'0 0.0
2017-Nov-28 08:28S 24°06' W 046°19'0 0.0
2017-Nov-28 07:58S 24°06' W 046°19'0 0.0
2017-Nov-28 07:28S 24°06' W 046°19'0 0.0
2017-Nov-28 06:58S 24°06' W 046°19'0 0.0
2017-Nov-28 06:28S 24°06' W 046°19'0 0.0
2017-Nov-28 05:58S 24°06' W 046°19'0 0.1
2017-Nov-28 05:28S 24°06' W 046°19'0 0.0
2017-Nov-28 04:25S 24°06' W 046°19'0 0.0
2017-Nov-28 03:58S 24°06' W 046°19'0 0.0
2017-Nov-28 03:28S 24°06' W 046°19'0 0.0
2017-Nov-28 02:58S 24°06' W 046°19'0 0.1
2017-Nov-28 02:28S 24°06' W 046°19'0 0.1
2017-Nov-28 01:52S 24°06' W 046°19'0 0.0
2017-Nov-28 01:28S 24°06' W 046°19'0 0.1
2017-Nov-28 00:58S 24°06' W 046°19'0 0.0
2017-Nov-28 00:28S 24°06' W 046°19'0 0.1
2017-Nov-27 23:58S 24°06' W 046°19'0 0.1
2017-Nov-27 23:22S 24°06' W 046°19'0 0.1
2017-Nov-27 22:55S 24°06' W 046°19'0 0.0
2017-Nov-27 22:25S 24°06' W 046°19'0 0.1
2017-Nov-27 21:58S 24°06' W 046°19'0 0.0
2017-Nov-27 21:28S 24°06' W 046°19'0 0.0
2017-Nov-27 20:58S 24°06' W 046°19'0 0.0
2017-Nov-27 20:28S 24°06' W 046°19'0 0.0
2017-Nov-27 19:58S 24°06' W 046°19'0 0.0
2017-Nov-27 19:28S 24°06' W 046°19'0 0.0
2017-Nov-27 18:43S 24°06' W 046°19'0 0.0
2017-Nov-27 18:28S 24°06' W 046°19'0 0.0
2017-Nov-27 17:55S 24°06' W 046°19'0 0.0
2017-Nov-27 17:28S 24°06' W 046°19'0 0.0
2017-Nov-27 16:52S 24°06' W 046°19'0 0.0
2017-Nov-27 16:28S 24°06' W 046°19'0 0.0
2017-Nov-27 15:58S 24°06' W 046°19'0 0.0
2017-Nov-27 15:28S 24°06' W 046°19'0 0.0
2017-Nov-27 14:58S 24°06' W 046°19'0 0.0
2017-Nov-27 14:22S 24°06' W 046°19'0 0.0
2017-Nov-27 13:58S 24°06' W 046°19'0 0.0
2017-Nov-27 13:28S 24°06' W 046°19'0 0.0
2017-Nov-27 12:58S 24°06' W 046°19'0 0.0
2017-Nov-27 12:22S 24°06' W 046°19'0 0.0
2017-Nov-27 11:55S 24°06' W 046°19'0 0.0
2017-Nov-27 11:28S 24°06' W 046°19'0 0.0
2017-Nov-27 10:58S 24°06' W 046°19'0 0.0
2017-Nov-27 10:28S 24°06' W 046°19'0 0.0
2017-Nov-27 09:58S 24°06' W 046°19'0 0.0
2017-Nov-27 09:28S 24°06' W 046°19'0 0.0
2017-Nov-27 08:58S 24°06' W 046°19'0 0.0
2017-Nov-27 08:28S 24°06' W 046°19'0 0.0
2017-Nov-27 07:58S 24°06' W 046°19'0 0.0
2017-Nov-27 07:28S 24°06' W 046°19'0 0.0
2017-Nov-27 06:58S 24°06' W 046°19'0 0.0
2017-Nov-27 06:28S 24°06' W 046°19'0 0.0
2017-Nov-27 05:58S 24°06' W 046°19'0 0.0
2017-Nov-27 05:25S 24°06' W 046°19'0 0.1
2017-Nov-27 04:58S 24°06' W 046°19'0 0.0
2017-Nov-27 04:28S 24°06' W 046°19'0 0.1
2017-Nov-27 03:52S 24°06' W 046°19'0 0.1
2017-Nov-27 03:28S 24°06' W 046°19'0 0.1
2017-Nov-27 02:58S 24°06' W 046°19'0 0.0
2017-Nov-27 02:28S 24°06' W 046°19'0 0.0
2017-Nov-27 01:58S 24°06' W 046°19'0 0.0
2017-Nov-27 01:28S 24°06' W 046°19'0 0.0
2017-Nov-27 00:58S 24°06' W 046°19'0 0.1
2017-Nov-27 00:28S 24°06' W 046°19'0 0.3
2017-Nov-26 23:55S 24°06' W 046°19'0 0.2
2017-Nov-26 23:28S 24°06' W 046°19'0 0.0
2017-Nov-26 22:58S 24°06' W 046°19'0 0.0
2017-Nov-26 22:28S 24°06' W 046°19'0 0.1
2017-Nov-26 21:58S 24°06' W 046°19'0 0.0
2017-Nov-26 21:25S 24°06' W 046°19'0 0.0
2017-Nov-26 20:58S 24°06' W 046°19'0 0.0
2017-Nov-26 20:28S 24°06' W 046°19'0 0.0
2017-Nov-26 19:58S 24°06' W 046°19'0 0.0
2017-Nov-26 19:25S 24°06' W 046°19'0 0.0
2017-Nov-26 18:58S 24°06' W 046°19'0 0.1
2017-Nov-26 18:28S 24°06' W 046°19'0 0.0
2017-Nov-26 17:58S 24°06' W 046°19'0 0.0
2017-Nov-26 17:28S 24°06' W 046°19'0 0.0
2017-Nov-26 16:58S 24°06' W 046°19'0 0.0
2017-Nov-26 16:22S 24°06' W 046°19'0 0.0
2017-Nov-26 15:58S 24°06' W 046°19'0 0.0
2017-Nov-26 15:28S 24°06' W 046°19'0 0.0
2017-Nov-26 14:58S 24°06' W 046°19'0 0.1
2017-Nov-26 14:28S 24°06' W 046°19'0 0.0
2017-Nov-26 13:58S 24°06' W 046°19'0 0.0
2017-Nov-26 13:28S 24°06' W 046°19'0 0.0
2017-Nov-26 12:58S 24°06' W 046°19'0 0.0
2017-Nov-26 12:22S 24°06' W 046°19'0 0.0
2017-Nov-26 11:58S 24°06' W 046°19'0 0.0
2017-Nov-26 11:28S 24°06' W 046°19'0 0.0
2017-Nov-26 10:52S 24°06' W 046°19'0 0.0
2017-Nov-26 10:28S 24°06' W 046°19'0 0.0
2017-Nov-26 09:58S 24°06' W 046°19'0 0.0
2017-Nov-26 09:28S 24°06' W 046°19'0 0.0
2017-Nov-26 08:58S 24°06' W 046°19'0 0.0
2017-Nov-26 08:28S 24°06' W 046°19'0 0.0
2017-Nov-26 07:58S 24°06' W 046°19'0 0.0
2017-Nov-26 07:28S 24°06' W 046°19'0 0.0
2017-Nov-26 06:58S 24°06' W 046°19'0 0.0
2017-Nov-26 06:28S 24°06' W 046°19'0 0.0
2017-Nov-26 05:58S 24°06' W 046°19'0 0.0
2017-Nov-26 05:28S 24°06' W 046°19'0 0.1
2017-Nov-26 04:58S 24°06' W 046°19'0 0.0
2017-Nov-26 04:28S 24°06' W 046°19'0 0.1
2017-Nov-26 03:58S 24°06' W 046°19'0 0.0
2017-Nov-26 03:28S 24°06' W 046°19'0 0.0
2017-Nov-26 02:55S 24°06' W 046°19'0 0.0
2017-Nov-26 02:28S 24°06' W 046°19'0 0.0
2017-Nov-26 01:58S 24°06' W 046°19'0 0.0
2017-Nov-26 01:28S 24°06' W 046°19'0 0.0
2017-Nov-26 00:58S 24°06' W 046°19'0 0.1
2017-Nov-26 00:28S 24°06' W 046°19'0 0.0
2017-Nov-25 23:58S 24°06' W 046°19'0 0.0
2017-Nov-25 23:28S 24°06' W 046°19'0 0.0
2017-Nov-25 22:58S 24°06' W 046°19'0 0.1
2017-Nov-25 22:28S 24°06' W 046°19'0 0.0
2017-Nov-25 21:58S 24°06' W 046°19'0 0.0
2017-Nov-25 21:28S 24°06' W 046°19'0 0.0
2017-Nov-25 20:49S 24°06' W 046°19'0 0.0
2017-Nov-25 20:28S 24°06' W 046°19'0 0.0
2017-Nov-25 19:58S 24°06' W 046°19'0 0.0
2017-Nov-25 19:28S 24°06' W 046°19'0 0.0
2017-Nov-25 18:58S 24°06' W 046°19'0 0.1
2017-Nov-25 18:28S 24°06' W 046°19'0 0.0
2017-Nov-25 17:58S 24°06' W 046°19'0 0.0
2017-Nov-25 17:04S 24°06' W 046°19'0 0.1
2017-Nov-25 16:58S 24°06' W 046°19'0 0.0
2017-Nov-25 16:28S 24°06' W 046°19'0 0.0
2017-Nov-25 15:58S 24°06' W 046°19'0 0.0
2017-Nov-25 15:28S 24°06' W 046°19'0 0.0
2017-Nov-25 14:58S 24°06' W 046°19'0 0.0
2017-Nov-25 14:25S 24°06' W 046°19'0 0.0
2017-Nov-25 13:55S 24°06' W 046°19'0 0.2
2017-Nov-25 13:25S 24°06' W 046°19'0 0.2
2017-Nov-25 12:55S 24°06' W 046°19'0 0.1
2017-Nov-25 12:28S 24°06' W 046°19'0 0.0
2017-Nov-25 11:58S 24°06' W 046°19'0 0.1
2017-Nov-25 11:28S 24°06' W 046°19'0 0.1
2017-Nov-25 10:55S 24°06' W 046°19'0 0.1
2017-Nov-25 10:28S 24°06' W 046°19'0 0.0
2017-Nov-25 09:58S 24°06' W 046°19'0 0.0
2017-Nov-25 09:28S 24°06' W 046°19'0 0.0
2017-Nov-25 08:58S 24°06' W 046°19'0 0.0
2017-Nov-25 08:28S 24°06' W 046°19'0 0.0
2017-Nov-25 07:52S 24°06' W 046°19'0 0.0
2017-Nov-25 07:28S 24°06' W 046°19'0 0.0
2017-Nov-25 06:58S 24°06' W 046°19'0 0.0
2017-Nov-25 06:28S 24°06' W 046°19'0 0.0
2017-Nov-25 05:58S 24°06' W 046°19'0 0.0
2017-Nov-25 05:28S 24°06' W 046°19'0 0.0
2017-Nov-25 04:55S 24°06' W 046°19'0 0.0
2017-Nov-25 04:28S 24°06' W 046°19'0 0.0
2017-Nov-25 03:58S 24°06' W 046°19'0 0.0
2017-Nov-25 03:28S 24°06' W 046°19'0 0.0
2017-Nov-25 02:58S 24°06' W 046°19'0 0.0
2017-Nov-25 02:28S 24°06' W 046°19'0 0.0
2017-Nov-25 01:58S 24°06' W 046°19'0 0.0
2017-Nov-25 01:22S 24°06' W 046°19'0 0.0
2017-Nov-25 00:58S 24°06' W 046°19'0 0.0
2017-Nov-25 00:28S 24°06' W 046°19'0 0.0
2017-Nov-24 23:49S 24°06' W 046°19'0 0.0
2017-Nov-24 23:28S 24°06' W 046°19'0 0.0
2017-Nov-24 22:58S 24°06' W 046°19'0 0.0
2017-Nov-24 22:22S 24°06' W 046°19'0 0.0
2017-Nov-24 21:58S 24°06' W 046°19'0 0.0
2017-Nov-24 21:28S 24°06' W 046°19'0 0.0
2017-Nov-24 20:58S 24°06' W 046°19'0 0.0
2017-Nov-24 20:28S 24°06' W 046°19'0 0.0
2017-Nov-24 19:58S 24°06' W 046°19'0 0.1
2017-Nov-24 19:28S 24°06' W 046°19'0 0.0
2017-Nov-24 18:58S 24°06' W 046°19'0 0.0
2017-Nov-24 18:28S 24°06' W 046°19'0 0.0
2017-Nov-24 17:58S 24°06' W 046°19'0 0.0
2017-Nov-24 17:28S 24°06' W 046°19'0 0.0
2017-Nov-24 16:58S 24°06' W 046°19'0 0.0
2017-Nov-24 16:28S 24°06' W 046°19'0 0.0
2017-Nov-24 15:58S 24°06' W 046°19'0 0.0
2017-Nov-24 15:28S 24°06' W 046°19'0 0.0
2017-Nov-24 14:58S 24°06' W 046°19'0 0.0
2017-Nov-24 14:28S 24°06' W 046°19'0 0.1
2017-Nov-24 13:58S 24°06' W 046°19'0 0.0
2017-Nov-24 13:28S 24°06' W 046°19'0 0.0
2017-Nov-24 12:58S 24°06' W 046°19'0 0.0
2017-Nov-24 12:22S 24°06' W 046°19'0 0.0
2017-Nov-24 11:58S 24°06' W 046°19'0 0.0
2017-Nov-24 11:25S 24°06' W 046°19'0 0.0
2017-Nov-24 10:58S 24°06' W 046°19'0 0.0
2017-Nov-24 10:28S 24°06' W 046°19'0 0.0
2017-Nov-24 09:46S 24°06' W 046°19'0 0.1
2017-Nov-24 09:28S 24°06' W 046°19'0 0.0
2017-Nov-24 08:52S 24°06' W 046°19'0 0.0
2017-Nov-24 08:28S 24°06' W 046°19'0 0.0
2017-Nov-24 07:58S 24°06' W 046°19'0 0.0
2017-Nov-24 07:28S 24°06' W 046°19'0 0.0
2017-Nov-24 06:58S 24°06' W 046°19'0 0.0
2017-Nov-24 06:28S 24°06' W 046°19'0 0.0
2017-Nov-24 05:58S 24°06' W 046°19'0 0.0
2017-Nov-24 05:25S 24°06' W 046°19'0 0.0
2017-Nov-24 04:58S 24°06' W 046°19'0 0.0
2017-Nov-24 04:25S 24°06' W 046°19'0 0.0
2017-Nov-24 03:58S 24°06' W 046°19'0 0.0
2017-Nov-24 03:28S 24°06' W 046°19'0 0.2
2017-Nov-24 02:58S 24°06' W 046°19'0 0.1
2017-Nov-24 02:22S 24°06' W 046°19'0 0.0
2017-Nov-24 01:58S 24°06' W 046°19'0 0.0
2017-Nov-24 01:28S 24°06' W 046°19'0 0.0
2017-Nov-24 00:58S 24°06' W 046°19'0 0.0
2017-Nov-24 00:28S 24°06' W 046°19'0 0.0
2017-Nov-23 23:58S 24°06' W 046°19'0 0.0
2017-Nov-23 23:28S 24°06' W 046°19'0 0.0
2017-Nov-23 22:58S 24°06' W 046°19'0 0.0
2017-Nov-23 22:28S 24°06' W 046°19'0 0.0
2017-Nov-23 21:58S 24°06' W 046°19'0 0.0
2017-Nov-23 21:28S 24°06' W 046°19'0 0.0
2017-Nov-23 20:58S 24°06' W 046°19'0 0.0
2017-Nov-23 20:28S 24°06' W 046°19'0 0.0
2017-Nov-23 19:58S 24°06' W 046°19'0 0.1
2017-Nov-23 19:28S 24°06' W 046°19'0 0.0
2017-Nov-23 18:58S 24°06' W 046°19'0 0.0
2017-Nov-23 18:28S 24°06' W 046°19'0 0.0
2017-Nov-23 17:58S 24°06' W 046°19'0 0.0
2017-Nov-23 17:28S 24°06' W 046°19'0 0.0
2017-Nov-23 16:58S 24°06' W 046°19'0 0.0
2017-Nov-23 16:22S 24°06' W 046°19'0 0.0
2017-Nov-23 15:58S 24°06' W 046°19'0 0.0
2017-Nov-23 15:22S 24°06' W 046°19'0 0.0
2017-Nov-23 14:58S 24°06' W 046°19'0 0.0
2017-Nov-23 14:25S 24°06' W 046°19'0 0.0
2017-Nov-23 13:58S 24°06' W 046°19'0 0.1
2017-Nov-23 13:22S 24°06' W 046°19'0 0.1
2017-Nov-23 12:58S 24°06' W 046°19'0 0.0
2017-Nov-23 12:28S 24°06' W 046°19'0 0.1
2017-Nov-23 11:58S 24°06' W 046°19'0 0.0
2017-Nov-23 11:28S 24°06' W 046°19'0 0.0
2017-Nov-23 10:58S 24°06' W 046°19'0 0.0
2017-Nov-23 10:22S 24°06' W 046°19'  
Track history (hours):
 
Tides and Currents Weather Stations Pressure Air Temp Water Temp Dewpoint Dewpoint Depression Visibility Wind Speed Wind Dir Waves Ship Positions

Unity Spirit

Last reported at 2017-Dec-03 09:58 UTC. Time now 2017-Dec-11 00:07 UTC.
Position S 23°58' W 046°17'.

Length 200 m; draft 9.7 m.

Type: Cargo ship. MMSI: 311000382.

Date/timePositionNaut miles runAvg speedWind from/ knotsBaromVisibWave heightAir tempDewpointWater temp
2017-Dec-03 09:58S 23°58' W 046°17'0 0.0
2017-Dec-03 01:55S 23°58' W 046°17'2 5.5
2017-Dec-03 01:30S 23°60' W 046°19'4 8.6
2017-Dec-03 01:01S 24°03' W 046°22'3 6.3
2017-Dec-03 00:31S 24°06' W 046°23'3 6.0
2017-Dec-03 00:01S 24°07' W 046°20'0 0.7
2017-Dec-02 23:26S 24°06' W 046°19'0 0.0
2017-Dec-02 22:59S 24°06' W 046°19'0 0.0
2017-Dec-02 22:29S 24°06' W 046°19'0 0.0
2017-Dec-02 21:59S 24°06' W 046°19'0 0.0
2017-Dec-02 21:29S 24°06' W 046°19'0 0.0
2017-Dec-02 20:59S 24°06' W 046°19'0 0.0
2017-Dec-02 20:23S 24°06' W 046°19'0 0.0
2017-Dec-02 19:53S 24°06' W 046°19'0 0.0
2017-Dec-02 19:29S 24°06' W 046°19'0 0.0
2017-Dec-02 18:59S 24°06' W 046°19'0 0.0
2017-Dec-02 18:29S 24°06' W 046°19'0 0.0
2017-Dec-02 17:59S 24°06' W 046°19'0 0.0
2017-Dec-02 17:29S 24°06' W 046°19'0 0.0
2017-Dec-02 16:53S 24°06' W 046°19'0 0.0
2017-Dec-02 16:29S 24°06' W 046°19'0 0.0
2017-Dec-02 15:59S 24°06' W 046°19'0 0.0
2017-Dec-02 15:29S 24°06' W 046°19'0 0.0
2017-Dec-02 14:59S 24°06' W 046°19'0 0.0
2017-Dec-02 14:29S 24°06' W 046°19'0 0.0
2017-Dec-02 13:53S 24°06' W 046°19'0 0.0
2017-Dec-02 13:26S 24°06' W 046°19'0 0.0
2017-Dec-02 12:59S 24°06' W 046°19'0 0.0
2017-Dec-02 12:26S 24°06' W 046°19'0 0.0
2017-Dec-02 11:59S 24°06' W 046°19'0 0.0
2017-Dec-02 11:29S 24°06' W 046°19'0 0.0
2017-Dec-02 10:59S 24°06' W 046°19'0 0.0
2017-Dec-02 10:29S 24°06' W 046°19'0 0.0
2017-Dec-02 09:59S 24°06' W 046°19'0 0.0
2017-Dec-02 09:26S 24°06' W 046°19'0 0.0
2017-Dec-02 08:59S 24°06' W 046°19'0 0.0
2017-Dec-02 08:29S 24°06' W 046°19'0 0.0
2017-Dec-02 07:59S 24°06' W 046°19'0 0.0
2017-Dec-02 07:20S 24°06' W 046°19'0 0.0
2017-Dec-02 06:56S 24°06' W 046°19'0 0.1
2017-Dec-02 06:29S 24°06' W 046°19'0 0.0
2017-Dec-02 05:59S 24°06' W 046°19'0 0.0
2017-Dec-02 05:23S 24°06' W 046°19'0 0.0
2017-Dec-02 04:59S 24°06' W 046°19'0 0.0
2017-Dec-02 04:29S 24°06' W 046°19'0 0.0
2017-Dec-02 03:59S 24°06' W 046°19'0 0.0
2017-Dec-02 03:29S 24°06' W 046°19'0 0.0
2017-Dec-02 02:59S 24°06' W 046°19'0 0.0
2017-Dec-02 02:26S 24°06' W 046°19'0 0.0
2017-Dec-02 01:59S 24°06' W 046°19'0 0.0
2017-Dec-02 01:29S 24°06' W 046°19'0 0.0
2017-Dec-02 00:59S 24°06' W 046°19'0 0.0
2017-Dec-02 00:29S 24°06' W 046°19'0 0.0
2017-Dec-01 23:59S 24°06' W 046°19'0 0.0
2017-Dec-01 23:26S 24°06' W 046°19'0 0.0
2017-Dec-01 22:59S 24°06' W 046°19'0 0.0
2017-Dec-01 22:29S 24°06' W 046°19'0 0.0
2017-Dec-01 21:59S 24°06' W 046°19'0 0.0
2017-Dec-01 21:29S 24°06' W 046°19'0 0.0
2017-Dec-01 20:59S 24°06' W 046°19'0 0.0
2017-Dec-01 20:29S 24°06' W 046°19'0 0.0
2017-Dec-01 19:59S 24°06' W 046°19'0 0.0
2017-Dec-01 19:29S 24°06' W 046°19'0 0.0
2017-Dec-01 18:53S 24°06' W 046°19'0 0.0
2017-Dec-01 18:29S 24°06' W 046°19'0 0.0
2017-Dec-01 17:59S 24°06' W 046°19'0 0.0
2017-Dec-01 17:29S 24°06' W 046°19'0 0.0
2017-Dec-01 16:56S 24°06' W 046°19'0 0.0
2017-Dec-01 16:26S 24°06' W 046°19'0 0.0
2017-Dec-01 15:59S 24°06' W 046°19'0 0.0
2017-Dec-01 15:29S 24°06' W 046°19'0 0.0
2017-Dec-01 14:59S 24°06' W 046°19'0 0.0
2017-Dec-01 14:29S 24°06' W 046°19'0 0.0
2017-Dec-01 13:59S 24°06' W 046°19'0 0.0
2017-Dec-01 13:29S 24°06' W 046°19'0 0.0
2017-Dec-01 12:59S 24°06' W 046°19'0 0.0
2017-Dec-01 12:29S 24°06' W 046°19'0 0.0
2017-Dec-01 11:59S 24°06' W 046°19'0 0.0
2017-Dec-01 11:29S 24°06' W 046°19'0 0.0
2017-Dec-01 10:59S 24°06' W 046°19'0 0.0
2017-Dec-01 10:29S 24°06' W 046°19'0 0.0
2017-Dec-01 09:59S 24°06' W 046°19'0 0.0
2017-Dec-01 09:29S 24°06' W 046°19'0 0.0
2017-Dec-01 08:47S 24°06' W 046°19'0 0.1
2017-Dec-01 08:29S 24°06' W 046°19'0 0.0
2017-Dec-01 07:59S 24°06' W 046°19'0 0.0
2017-Dec-01 07:26S 24°06' W 046°19'0 0.0
2017-Dec-01 06:59S 24°06' W 046°19'0 0.0
2017-Dec-01 06:29S 24°06' W 046°19'0 0.0
2017-Dec-01 05:59S 24°06' W 046°19'0 0.0
2017-Dec-01 05:29S 24°06' W 046°19'0 0.0
2017-Dec-01 04:59S 24°06' W 046°19'0 0.0
2017-Dec-01 04:29S 24°06' W 046°19'0 0.0
2017-Dec-01 03:59S 24°06' W 046°19'0 0.0
2017-Dec-01 03:29S 24°06' W 046°19'0 0.0
2017-Dec-01 02:53S 24°06' W 046°19'0 0.0
2017-Dec-01 02:29S 24°06' W 046°19'0 0.0
2017-Dec-01 01:59S 24°06' W 046°19'0 0.0
2017-Dec-01 01:29S 24°06' W 046°19'0 0.0
2017-Dec-01 00:56S 24°06' W 046°19'0 0.0
2017-Dec-01 00:29S 24°06' W 046°19'0 0.0
2017-Nov-30 23:59S 24°06' W 046°19'0 0.0
2017-Nov-30 23:23S 24°06' W 046°19'0 0.0
2017-Nov-30 22:59S 24°06' W 046°19'0 0.0
2017-Nov-30 22:29S 24°06' W 046°19'0 0.0
2017-Nov-30 21:56S 24°06' W 046°19'0 0.0
2017-Nov-30 21:29S 24°06' W 046°19'0 0.0
2017-Nov-30 20:53S 24°06' W 046°19'0 0.0
2017-Nov-30 20:29S 24°06' W 046°19'0 0.0
2017-Nov-30 19:56S 24°06' W 046°19'0 0.0
2017-Nov-30 19:29S 24°06' W 046°19'0 0.0
2017-Nov-30 18:59S 24°06' W 046°19'0 0.1
2017-Nov-30 18:29S 24°06' W 046°19'0 0.0
2017-Nov-30 17:59S 24°06' W 046°19'0 0.0
2017-Nov-30 17:29S 24°06' W 046°19'0 0.0
2017-Nov-30 16:59S 24°06' W 046°19'0 0.0
2017-Nov-30 16:20S 24°06' W 046°19'0 0.1
2017-Nov-30 15:59S 24°06' W 046°19'0 0.0
2017-Nov-30 15:29S 24°06' W 046°19'0 0.0
2017-Nov-30 14:44S 24°06' W 046°19'0 0.2
2017-Nov-30 14:29S 24°06' W 046°19'0 0.1
2017-Nov-30 13:59S 24°06' W 046°19'0 0.0
2017-Nov-30 13:23S 24°06' W 046°19'0 0.0
2017-Nov-30 12:59S 24°06' W 046°19'0 0.0
2017-Nov-30 12:29S 24°06' W 046°19'0 0.0
2017-Nov-30 11:53S 24°06' W 046°19'0 0.1
2017-Nov-30 11:23S 24°06' W 046°19'0 0.0
2017-Nov-30 10:59S 24°06' W 046°19'0 0.0
2017-Nov-30 10:29S 24°06' W 046°19'0 0.0
2017-Nov-30 09:59S 24°06' W 046°19'0 0.0
2017-Nov-30 09:26S 24°06' W 046°19'0 0.1
2017-Nov-30 08:59S 24°06' W 046°19'0 0.0
2017-Nov-30 08:29S 24°06' W 046°19'0 0.0
2017-Nov-30 07:59S 24°06' W 046°19'0 0.0
2017-Nov-30 07:29S 24°06' W 046°19'0 0.1
2017-Nov-30 06:59S 24°06' W 046°19'0 0.0
2017-Nov-30 06:29S 24°06' W 046°19'0 0.0
2017-Nov-30 05:59S 24°06' W 046°19'0 0.1
2017-Nov-30 05:29S 24°06' W 046°19'0 0.0
2017-Nov-30 04:59S 24°06' W 046°19'0 0.0
2017-Nov-30 04:29S 24°06' W 046°19'0 0.0
2017-Nov-30 03:56S 24°06' W 046°19'0 0.0
2017-Nov-30 03:29S 24°06' W 046°19'0 0.0
2017-Nov-30 02:59S 24°06' W 046°19'0 0.0
2017-Nov-30 02:29S 24°06' W 046°19'0 0.0
2017-Nov-30 01:59S 24°06' W 046°19'0 0.0
2017-Nov-30 01:29S 24°06' W 046°19'0 0.0
2017-Nov-30 00:59S 24°06' W 046°19'0 0.0
2017-Nov-30 00:29S 24°06' W 046°19'0 0.0
2017-Nov-29 23:59S 24°06' W 046°19'0 0.0
2017-Nov-29 23:29S 24°06' W 046°19'0 0.0
2017-Nov-29 22:59S 24°06' W 046°19'0 0.1
2017-Nov-29 22:29S 24°06' W 046°19'0 0.1
2017-Nov-29 21:59S 24°06' W 046°19'0 0.0
2017-Nov-29 21:29S 24°06' W 046°19'0 0.0
2017-Nov-29 20:59S 24°06' W 046°19'0 0.0
2017-Nov-29 20:29S 24°06' W 046°19'0 0.0
2017-Nov-29 19:53S 24°06' W 046°19'0 0.0
2017-Nov-29 19:29S 24°06' W 046°19'0 0.0
2017-Nov-29 18:56S 24°06' W 046°19'0 0.0
2017-Nov-29 18:29S 24°06' W 046°19'0 0.0
2017-Nov-29 17:59S 24°06' W 046°19'0 0.0
2017-Nov-29 17:29S 24°06' W 046°19'0 0.0
2017-Nov-29 16:59S 24°06' W 046°19'0 0.0
2017-Nov-29 16:29S 24°06' W 046°19'0 0.0
2017-Nov-29 15:56S 24°06' W 046°19'0 0.0
2017-Nov-29 15:29S 24°06' W 046°19'0 0.0
2017-Nov-29 14:59S 24°06' W 046°19'0 0.0
2017-Nov-29 14:26S 24°06' W 046°19'0 0.1
2017-Nov-29 13:59S 24°06' W 046°19'0 0.1
2017-Nov-29 13:29S 24°06' W 046°19'0 0.0
2017-Nov-29 12:59S 24°06' W 046°19'0 0.0
2017-Nov-29 12:29S 24°06' W 046°19'0 0.0
2017-Nov-29 11:58S 24°06' W 046°19'0 0.0
2017-Nov-29 11:28S 24°06' W 046°19'0 0.0
2017-Nov-29 10:59S 24°06' W 046°19'0 0.0
2017-Nov-29 10:29S 24°06' W 046°19'0 0.0
2017-Nov-29 09:59S 24°06' W 046°19'0 0.0
2017-Nov-29 09:29S 24°06' W 046°19'0 0.0
2017-Nov-29 08:59S 24°06' W 046°19'0 0.1
2017-Nov-29 08:22S 24°06' W 046°19'0 0.2
2017-Nov-29 07:59S 24°06' W 046°19'0 0.1
2017-Nov-29 07:29S 24°06' W 046°19'0 0.0
2017-Nov-29 06:58S 24°06' W 046°19'0 0.0
2017-Nov-29 06:28S 24°06' W 046°19'0 0.1
2017-Nov-29 05:58S 24°06' W 046°19'0 0.1
2017-Nov-29 05:29S 24°06' W 046°19'0 0.1
2017-Nov-29 04:59S 24°06' W 046°19'0 0.0
2017-Nov-29 04:29S 24°06' W 046°19'0 0.0
2017-Nov-29 03:58S 24°06' W 046°19'0 0.1
2017-Nov-29 03:29S 24°06' W 046°19'0 0.0
2017-Nov-29 02:58S 24°06' W 046°19'0 0.0
2017-Nov-29 02:28S 24°06' W 046°19'0 0.0
2017-Nov-29 01:59S 24°06' W 046°19'0 0.0
2017-Nov-29 01:29S 24°06' W 046°19'0 0.0
2017-Nov-29 00:59S 24°06' W 046°19'0 0.0
2017-Nov-29 00:29S 24°06' W 046°19'0 0.0
2017-Nov-28 23:59S 24°06' W 046°19'0 0.1
2017-Nov-28 23:29S 24°06' W 046°19'0 0.0
2017-Nov-28 22:58S 24°06' W 046°19'0 0.0
2017-Nov-28 22:25S 24°06' W 046°19'0 0.0
2017-Nov-28 21:59S 24°06' W 046°19'0 0.1
2017-Nov-28 21:28S 24°06' W 046°19'0 0.0
2017-Nov-28 20:55S 24°06' W 046°19'0 0.0
2017-Nov-28 20:28S 24°06' W 046°19'0 0.0
2017-Nov-28 19:59S 24°06' W 046°19'0 0.0
2017-Nov-28 19:28S 24°06' W 046°19'0 0.0
2017-Nov-28 18:58S 24°06' W 046°19'0 0.0
2017-Nov-28 18:29S 24°06' W 046°19'0 0.0
2017-Nov-28 17:55S 24°06' W 046°19'0 0.0
2017-Nov-28 17:19S 24°06' W 046°19'0 0.1
2017-Nov-28 16:58S 24°06' W 046°19'0 0.0
2017-Nov-28 16:28S 24°06' W 046°19'0 0.0
2017-Nov-28 15:58S 24°06' W 046°19'0 0.0
2017-Nov-28 14:58S 24°06' W 046°19'0 0.0
2017-Nov-28 14:28S 24°06' W 046°19'0 0.0
2017-Nov-28 13:52S 24°06' W 046°19'0 0.0
2017-Nov-28 13:28S 24°06' W 046°19'0 0.0
2017-Nov-28 12:58S 24°06' W 046°19'0 0.0
2017-Nov-28 12:25S 24°06' W 046°19'0 0.0
2017-Nov-28 11:58S 24°06' W 046°19'0 0.0
2017-Nov-28 11:28S 24°06' W 046°19'0 0.0
2017-Nov-28 10:58S 24°06' W 046°19'0 0.0
2017-Nov-28 10:28S 24°06' W 046°19'0 0.0
2017-Nov-28 09:58S 24°06' W 046°19'0 0.0
2017-Nov-28 09:28S 24°06' W 046°19'0 0.0
2017-Nov-28 08:58S 24°06' W 046°19'0 0.0
2017-Nov-28 08:28S 24°06' W 046°19'0 0.0
2017-Nov-28 07:58S 24°06' W 046°19'0 0.0
2017-Nov-28 07:28S 24°06' W 046°19'0 0.0
2017-Nov-28 06:58S 24°06' W 046°19'0 0.0
2017-Nov-28 06:28S 24°06' W 046°19'0 0.0
2017-Nov-28 05:58S 24°06' W 046°19'0 0.1
2017-Nov-28 05:28S 24°06' W 046°19'0 0.0
2017-Nov-28 04:25S 24°06' W 046°19'0 0.0
2017-Nov-28 03:58S 24°06' W 046°19'0 0.0
2017-Nov-28 03:28S 24°06' W 046°19'0 0.0
2017-Nov-28 02:58S 24°06' W 046°19'0 0.1
2017-Nov-28 02:28S 24°06' W 046°19'0 0.1
2017-Nov-28 01:52S 24°06' W 046°19'0 0.0
2017-Nov-28 01:28S 24°06' W 046°19'0 0.1
2017-Nov-28 00:58S 24°06' W 046°19'0 0.0
2017-Nov-28 00:28S 24°06' W 046°19'0 0.1
2017-Nov-27 23:58S 24°06' W 046°19'0 0.1
2017-Nov-27 23:22S 24°06' W 046°19'0 0.1
2017-Nov-27 22:55S 24°06' W 046°19'0 0.0
2017-Nov-27 22:25S 24°06' W 046°19'0 0.1
2017-Nov-27 21:58S 24°06' W 046°19'0 0.0
2017-Nov-27 21:28S 24°06' W 046°19'0 0.0
2017-Nov-27 20:58S 24°06' W 046°19'0 0.0
2017-Nov-27 20:28S 24°06' W 046°19'0 0.0
2017-Nov-27 19:58S 24°06' W 046°19'0 0.0
2017-Nov-27 19:28S 24°06' W 046°19'0 0.0
2017-Nov-27 18:43S 24°06' W 046°19'0 0.0
2017-Nov-27 18:28S 24°06' W 046°19'0 0.0
2017-Nov-27 17:55S 24°06' W 046°19'0 0.0
2017-Nov-27 17:28S 24°06' W 046°19'0 0.0
2017-Nov-27 16:52S 24°06' W 046°19'0 0.0
2017-Nov-27 16:28S 24°06' W 046°19'0 0.0
2017-Nov-27 15:58S 24°06' W 046°19'0 0.0
2017-Nov-27 15:28S 24°06' W 046°19'0 0.0
2017-Nov-27 14:58S 24°06' W 046°19'0 0.0
2017-Nov-27 14:22S 24°06' W 046°19'0 0.0
2017-Nov-27 13:58S 24°06' W 046°19'0 0.0
2017-Nov-27 13:28S 24°06' W 046°19'0 0.0
2017-Nov-27 12:58S 24°06' W 046°19'0 0.0
2017-Nov-27 12:22S 24°06' W 046°19'0 0.0
2017-Nov-27 11:55S 24°06' W 046°19'0 0.0
2017-Nov-27 11:28S 24°06' W 046°19'0 0.0
2017-Nov-27 10:58S 24°06' W 046°19'0 0.0
2017-Nov-27 10:28S 24°06' W 046°19'0 0.0
2017-Nov-27 09:58S 24°06' W 046°19'0 0.0
2017-Nov-27 09:28S 24°06' W 046°19'0 0.0
2017-Nov-27 08:58S 24°06' W 046°19'0 0.0
2017-Nov-27 08:28S 24°06' W 046°19'0 0.0
2017-Nov-27 07:58S 24°06' W 046°19'0 0.0
2017-Nov-27 07:28S 24°06' W 046°19'0 0.0
2017-Nov-27 06:58S 24°06' W 046°19'0 0.0
2017-Nov-27 06:28S 24°06' W 046°19'0 0.0
2017-Nov-27 05:58S 24°06' W 046°19'0 0.0
2017-Nov-27 05:25S 24°06' W 046°19'0 0.1
2017-Nov-27 04:58S 24°06' W 046°19'0 0.0
2017-Nov-27 04:28S 24°06' W 046°19'0 0.1
2017-Nov-27 03:52S 24°06' W 046°19'0 0.1
2017-Nov-27 03:28S 24°06' W 046°19'0 0.1
2017-Nov-27 02:58S 24°06' W 046°19'0 0.0
2017-Nov-27 02:28S 24°06' W 046°19'0 0.0
2017-Nov-27 01:58S 24°06' W 046°19'0 0.0
2017-Nov-27 01:28S 24°06' W 046°19'0 0.0
2017-Nov-27 00:58S 24°06' W 046°19'0 0.1
2017-Nov-27 00:28S 24°06' W 046°19'0 0.3
2017-Nov-26 23:55S 24°06' W 046°19'0 0.2
2017-Nov-26 23:28S 24°06' W 046°19'0 0.0
2017-Nov-26 22:58S 24°06' W 046°19'0 0.0
2017-Nov-26 22:28S 24°06' W 046°19'0 0.1
2017-Nov-26 21:58S 24°06' W 046°19'0 0.0
2017-Nov-26 21:25S 24°06' W 046°19'0 0.0
2017-Nov-26 20:58S 24°06' W 046°19'0 0.0
2017-Nov-26 20:28S 24°06' W 046°19'0 0.0
2017-Nov-26 19:58S 24°06' W 046°19'0 0.0
2017-Nov-26 19:25S 24°06' W 046°19'0 0.0
2017-Nov-26 18:58S 24°06' W 046°19'0 0.1
2017-Nov-26 18:28S 24°06' W 046°19'0 0.0
2017-Nov-26 17:58S 24°06' W 046°19'0 0.0
2017-Nov-26 17:28S 24°06' W 046°19'0 0.0
2017-Nov-26 16:58S 24°06' W 046°19'0 0.0
2017-Nov-26 16:22S 24°06' W 046°19'0 0.0
2017-Nov-26 15:58S 24°06' W 046°19'0 0.0
2017-Nov-26 15:28S 24°06' W 046°19'0 0.0
2017-Nov-26 14:58S 24°06' W 046°19'0 0.1
2017-Nov-26 14:28S 24°06' W 046°19'0 0.0
2017-Nov-26 13:58S 24°06' W 046°19'0 0.0
2017-Nov-26 13:28S 24°06' W 046°19'0 0.0
2017-Nov-26 12:58S 24°06' W 046°19'0 0.0
2017-Nov-26 12:22S 24°06' W 046°19'0 0.0
2017-Nov-26 11:58S 24°06' W 046°19'0 0.0
2017-Nov-26 11:28S 24°06' W 046°19'0 0.0
2017-Nov-26 10:52S 24°06' W 046°19'0 0.0
2017-Nov-26 10:28S 24°06' W 046°19'0 0.0
2017-Nov-26 09:58S 24°06' W 046°19'0 0.0
2017-Nov-26 09:28S 24°06' W 046°19'0 0.0
2017-Nov-26 08:58S 24°06' W 046°19'0 0.0
2017-Nov-26 08:28S 24°06' W 046°19'0 0.0
2017-Nov-26 07:58S 24°06' W 046°19'0 0.0
2017-Nov-26 07:28S 24°06' W 046°19'0 0.0
2017-Nov-26 06:58S 24°06' W 046°19'0 0.0
2017-Nov-26 06:28S 24°06' W 046°19'0 0.0
2017-Nov-26 05:58S 24°06' W 046°19'0 0.0
2017-Nov-26 05:28S 24°06' W 046°19'0 0.1
2017-Nov-26 04:58S 24°06' W 046°19'0 0.0
2017-Nov-26 04:28S 24°06' W 046°19'0 0.1
2017-Nov-26 03:58S 24°06' W 046°19'0 0.0
2017-Nov-26 03:28S 24°06' W 046°19'0 0.0
2017-Nov-26 02:55S 24°06' W 046°19'0 0.0
2017-Nov-26 02:28S 24°06' W 046°19'0 0.0
2017-Nov-26 01:58S 24°06' W 046°19'0 0.0
2017-Nov-26 01:28S 24°06' W 046°19'0 0.0
2017-Nov-26 00:58S 24°06' W 046°19'0 0.1
2017-Nov-26 00:28S 24°06' W 046°19'0 0.0
2017-Nov-25 23:58S 24°06' W 046°19'0 0.0
2017-Nov-25 23:28S 24°06' W 046°19'0 0.0
2017-Nov-25 22:58S 24°06' W 046°19'0 0.1
2017-Nov-25 22:28S 24°06' W 046°19'0 0.0
2017-Nov-25 21:58S 24°06' W 046°19'0 0.0
2017-Nov-25 21:28S 24°06' W 046°19'0 0.0
2017-Nov-25 20:49S 24°06' W 046°19'0 0.0
2017-Nov-25 20:28S 24°06' W 046°19'0 0.0
2017-Nov-25 19:58S 24°06' W 046°19'0 0.0
2017-Nov-25 19:28S 24°06' W 046°19'0 0.0
2017-Nov-25 18:58S 24°06' W 046°19'0 0.1
2017-Nov-25 18:28S 24°06' W 046°19'0 0.0
2017-Nov-25 17:58S 24°06' W 046°19'0 0.0
2017-Nov-25 17:04S 24°06' W 046°19'0 0.1
2017-Nov-25 16:58S 24°06' W 046°19'0 0.0
2017-Nov-25 16:28S 24°06' W 046°19'0 0.0
2017-Nov-25 15:58S 24°06' W 046°19'0 0.0
2017-Nov-25 15:28S 24°06' W 046°19'0 0.0
2017-Nov-25 14:58S 24°06' W 046°19'0 0.0
2017-Nov-25 14:25S 24°06' W 046°19'0 0.0
2017-Nov-25 13:55S 24°06' W 046°19'0 0.2
2017-Nov-25 13:25S 24°06' W 046°19'0 0.2
2017-Nov-25 12:55S 24°06' W 046°19'0 0.1
2017-Nov-25 12:28S 24°06' W 046°19'0 0.0
2017-Nov-25 11:58S 24°06' W 046°19'0 0.1
2017-Nov-25 11:28S 24°06' W 046°19'0 0.1
2017-Nov-25 10:55S 24°06' W 046°19'0 0.1
2017-Nov-25 10:28S 24°06' W 046°19'0 0.0
2017-Nov-25 09:58S 24°06' W 046°19'0 0.0
2017-Nov-25 09:28S 24°06' W 046°19'0 0.0
2017-Nov-25 08:58S 24°06' W 046°19'0 0.0
2017-Nov-25 08:28S 24°06' W 046°19'0 0.0
2017-Nov-25 07:52S 24°06' W 046°19'0 0.0
2017-Nov-25 07:28S 24°06' W 046°19'0 0.0
2017-Nov-25 06:58S 24°06' W 046°19'0 0.0
2017-Nov-25 06:28S 24°06' W 046°19'0 0.0
2017-Nov-25 05:58S 24°06' W 046°19'0 0.0
2017-Nov-25 05:28S 24°06' W 046°19'0 0.0
2017-Nov-25 04:55S 24°06' W 046°19'0 0.0
2017-Nov-25 04:28S 24°06' W 046°19'0 0.0
2017-Nov-25 03:58S 24°06' W 046°19'0 0.0
2017-Nov-25 03:28S 24°06' W 046°19'0 0.0
2017-Nov-25 02:58S 24°06' W 046°19'0 0.0
2017-Nov-25 02:28S 24°06' W 046°19'0 0.0
2017-Nov-25 01:58S 24°06' W 046°19'0 0.0
2017-Nov-25 01:22S 24°06' W 046°19'0 0.0
2017-Nov-25 00:58S 24°06' W 046°19'0 0.0
2017-Nov-25 00:28S 24°06' W 046°19'0 0.0
2017-Nov-24 23:49S 24°06' W 046°19'0 0.0
2017-Nov-24 23:28S 24°06' W 046°19'0 0.0
2017-Nov-24 22:58S 24°06' W 046°19'0 0.0
2017-Nov-24 22:22S 24°06' W 046°19'0 0.0
2017-Nov-24 21:58S 24°06' W 046°19'0 0.0
2017-Nov-24 21:28S 24°06' W 046°19'0 0.0
2017-Nov-24 20:58S 24°06' W 046°19'0 0.0
2017-Nov-24 20:28S 24°06' W 046°19'0 0.0
2017-Nov-24 19:58S 24°06' W 046°19'0 0.1
2017-Nov-24 19:28S 24°06' W 046°19'0 0.0
2017-Nov-24 18:58S 24°06' W 046°19'0 0.0
2017-Nov-24 18:28S 24°06' W 046°19'0 0.0
2017-Nov-24 17:58S 24°06' W 046°19'0 0.0
2017-Nov-24 17:28S 24°06' W 046°19'0 0.0
2017-Nov-24 16:58S 24°06' W 046°19'0 0.0
2017-Nov-24 16:28S 24°06' W 046°19'0 0.0
2017-Nov-24 15:58S 24°06' W 046°19'0 0.0
2017-Nov-24 15:28S 24°06' W 046°19'0 0.0
2017-Nov-24 14:58S 24°06' W 046°19'0 0.0
2017-Nov-24 14:28S 24°06' W 046°19'0 0.1
2017-Nov-24 13:58S 24°06' W 046°19'0 0.0
2017-Nov-24 13:28S 24°06' W 046°19'0 0.0
2017-Nov-24 12:58S 24°06' W 046°19'0 0.0
2017-Nov-24 12:22S 24°06' W 046°19'0 0.0
2017-Nov-24 11:58S 24°06' W 046°19'0 0.0
2017-Nov-24 11:25S 24°06' W 046°19'0 0.0
2017-Nov-24 10:58S 24°06' W 046°19'0 0.0
2017-Nov-24 10:28S 24°06' W 046°19'0 0.0
2017-Nov-24 09:46S 24°06' W 046°19'0 0.1
2017-Nov-24 09:28S 24°06' W 046°19'0 0.0
2017-Nov-24 08:52S 24°06' W 046°19'0 0.0
2017-Nov-24 08:28S 24°06' W 046°19'0 0.0
2017-Nov-24 07:58S 24°06' W 046°19'0 0.0
2017-Nov-24 07:28S 24°06' W 046°19'0 0.0
2017-Nov-24 06:58S 24°06' W 046°19'0 0.0
2017-Nov-24 06:28S 24°06' W 046°19'0 0.0
2017-Nov-24 05:58S 24°06' W 046°19'0 0.0
2017-Nov-24 05:25S 24°06' W 046°19'0 0.0
2017-Nov-24 04:58S 24°06' W 046°19'0 0.0
2017-Nov-24 04:25S 24°06' W 046°19'0 0.0
2017-Nov-24 03:58S 24°06' W 046°19'0 0.0
2017-Nov-24 03:28S 24°06' W 046°19'0 0.2
2017-Nov-24 02:58S 24°06' W 046°19'0 0.1
2017-Nov-24 02:22S 24°06' W 046°19'0 0.0
2017-Nov-24 01:58S 24°06' W 046°19'0 0.0
2017-Nov-24 01:28S 24°06' W 046°19'0 0.0
2017-Nov-24 00:58S 24°06' W 046°19'0 0.0
2017-Nov-24 00:28S 24°06' W 046°19'0 0.0
2017-Nov-23 23:58S 24°06' W 046°19'0 0.0
2017-Nov-23 23:28S 24°06' W 046°19'0 0.0
2017-Nov-23 22:58S 24°06' W 046°19'0 0.0
2017-Nov-23 22:28S 24°06' W 046°19'0 0.0
2017-Nov-23 21:58S 24°06' W 046°19'0 0.0
2017-Nov-23 21:28S 24°06' W 046°19'0 0.0
2017-Nov-23 20:58S 24°06' W 046°19'0 0.0
2017-Nov-23 20:28S 24°06' W 046°19'0 0.0
2017-Nov-23 19:58S 24°06' W 046°19'0 0.1
2017-Nov-23 19:28S 24°06' W 046°19'0 0.0
2017-Nov-23 18:58S 24°06' W 046°19'0 0.0
2017-Nov-23 18:28S 24°06' W 046°19'0 0.0
2017-Nov-23 17:58S 24°06' W 046°19'0 0.0
2017-Nov-23 17:28S 24°06' W 046°19'0 0.0
2017-Nov-23 16:58S 24°06' W 046°19'0 0.0
2017-Nov-23 16:22S 24°06' W 046°19'0 0.0
2017-Nov-23 15:58S 24°06' W 046°19'0 0.0
2017-Nov-23 15:22S 24°06' W 046°19'0 0.0
2017-Nov-23 14:58S 24°06' W 046°19'0 0.0
2017-Nov-23 14:25S 24°06' W 046°19'0 0.0
2017-Nov-23 13:58S 24°06' W 046°19'0 0.1
2017-Nov-23 13:22S 24°06' W 046°19'0 0.1
2017-Nov-23 12:58S 24°06' W 046°19'0 0.0
2017-Nov-23 12:28S 24°06' W 046°19'0 0.1
2017-Nov-23 11:58S 24°06' W 046°19'0 0.0
2017-Nov-23 11:28S 24°06' W 046°19'0 0.0
2017-Nov-23 10:58S 24°06' W 046°19'0 0.0
2017-Nov-23 10:22S 24°06' W 046°19'  

Dump ship's entire track history